Terminal Aerodrome Forecast
Issued by NWS

Home | Current Version | Previous Version | Text Only | Print | Product List | Glossary On
Versions: 1 2 3 4 5 6 7 8 9 10 11 12 13 14 15 16 17 18 19 20 21 22 23 24 25
000
FTUS43 KDLH 220824 AAD
TAFHIB
TAF AMD
KHIB 220824Z 2208/2306 00000KT 1/2SM FG OVC001
      TEMPO 2208/2210 4SM BR SCT001
     FM221000 VRB02KT 4SM BR SCT001
     FM221100 29004KT P6SM SKC
     FM221500 28006KT P6SM SCT050
     FM230100 23006KT P6SM BKN050=

USA.gov is the U.S. government's official web portal to all federal, state and local government web resources and services.